createdAt,value
2023-02-13T00:00:12.590Z,16.20
2023-02-13T00:02:39.374Z,15.20
2023-02-13T00:05:06.802Z,14.47
2023-02-13T00:07:33.475Z,15.70
2023-02-13T00:10:00.150Z,15.23
2023-02-13T00:12:26.901Z,14.37
2023-02-13T00:14:54.085Z,15.97
2023-02-13T00:17:20.829Z,16.10
2023-02-13T00:19:47.615Z,14.77
2023-02-13T00:22:16.917Z,15.43
2023-02-13T00:24:44.001Z,14.40
2023-02-13T00:27:10.880Z,14.90
2023-02-13T00:29:37.641Z,15.97
2023-02-13T00:32:04.631Z,16.80
2023-02-13T00:34:31.472Z,15.00
2023-02-13T00:36:58.189Z,15.33
2023-02-13T00:39:25.050Z,16.87
2023-02-13T00:41:51.804Z,16.43
2023-02-13T00:44:18.478Z,16.60
2023-02-13T00:46:45.267Z,16.23
2023-02-13T00:49:12.014Z,15.40
2023-02-13T00:51:38.692Z,16.53
2023-02-13T00:54:05.514Z,16.27
2023-02-13T00:56:32.281Z,15.57
2023-02-13T00:58:59.095Z,16.10
2023-02-13T01:01:26.154Z,16.57
2023-02-13T01:03:52.956Z,16.20
2023-02-13T01:06:19.659Z,16.77
2023-02-13T01:08:46.455Z,17.17
2023-02-13T01:11:13.283Z,15.73
2023-02-13T01:13:40.194Z,16.20
2023-02-13T01:16:07.322Z,15.60
2023-02-13T01:18:34.086Z,16.43
2023-02-13T01:21:03.634Z,16.07
2023-02-13T01:23:38.874Z,15.20
2023-02-13T01:26:07.649Z,14.47
2023-02-13T01:28:35.098Z,15.90
2023-02-13T01:31:02.675Z,16.10
2023-02-13T01:33:30.401Z,16.03
2023-02-13T01:35:58.070Z,16.60
2023-02-13T01:38:24.799Z,15.53
2023-02-13T01:40:53.834Z,15.70
2023-02-13T01:43:24.298Z,15.70
2023-02-13T01:45:56.353Z,15.90
2023-02-13T01:48:26.452Z,15.53
2023-02-13T01:50:55.864Z,15.73
2023-02-13T01:53:48.071Z,22.97
2023-02-13T01:56:36.829Z,16.13
2023-02-13T01:59:11.269Z,16.90
2023-02-13T02:01:38.506Z,16.30
2023-02-13T02:04:31.577Z,14.57
2023-02-13T02:07:04.948Z,15.33
2023-02-13T02:09:35.658Z,15.40
2023-02-13T02:12:36.320Z,16.00
2023-02-13T02:15:05.011Z,17.07
2023-02-13T02:17:31.795Z,16.23
2023-02-13T02:20:04.784Z,15.73
2023-02-13T02:22:56.316Z,15.43
2023-02-13T02:26:03.642Z,16.03
2023-02-13T02:29:01.454Z,16.30
2023-02-13T02:32:01.779Z,17.20
2023-02-13T02:34:37.364Z,16.07
2023-02-13T02:37:38.191Z,15.87
2023-02-13T02:40:25.353Z,15.87
2023-02-13T02:42:57.875Z,16.07
2023-02-13T02:45:40.427Z,14.97
2023-02-13T02:48:32.465Z,16.37
2023-02-13T02:51:14.457Z,16.20
2023-02-13T02:53:51.572Z,15.53
2023-02-13T02:56:30.651Z,17.03
2023-02-13T02:59:25.487Z,16.80
2023-02-13T03:02:13.456Z,15.13
2023-02-13T03:05:06.543Z,16.47
2023-02-13T03:07:33.441Z,15.83
2023-02-13T03:10:40.923Z,16.73
2023-02-13T03:13:41.976Z,16.00
2023-02-13T03:16:35.479Z,15.57
2023-02-13T03:19:21.140Z,15.30
2023-02-13T03:22:22.735Z,17.33
2023-02-13T03:25:30.161Z,16.27
2023-02-13T03:28:54.400Z,16.23
2023-02-13T03:31:49.799Z,14.93
2023-02-13T03:34:47.149Z,15.73
2023-02-13T03:37:34.710Z,15.27
2023-02-13T03:40:15.513Z,15.23
2023-02-13T03:42:50.847Z,17.67
2023-02-13T03:45:48.779Z,17.20
2023-02-13T03:48:38.066Z,17.40
2023-02-13T03:51:08.574Z,16.80
2023-02-13T03:53:38.278Z,13.57
2023-02-13T03:56:24.956Z,17.33
2023-02-13T03:59:13.295Z,16.70
2023-02-13T04:01:41.241Z,18.30
2023-02-13T04:04:25.543Z,17.17
2023-02-13T04:07:02.924Z,15.77
2023-02-13T04:09:30.963Z,16.47
2023-02-13T04:12:46.887Z,17.53
2023-02-13T04:15:18.707Z,16.73
2023-02-13T04:18:17.950Z,17.30
2023-02-13T04:20:44.977Z,16.57
2023-02-13T04:23:13.019Z,17.00
2023-02-13T04:25:43.268Z,16.40
2023-02-13T04:28:10.129Z,16.67
2023-02-13T04:30:37.244Z,15.77
2023-02-13T04:33:04.176Z,16.53
2023-02-13T04:35:30.899Z,16.43
2023-02-13T04:37:57.596Z,16.23
2023-02-13T04:40:24.330Z,17.30
2023-02-13T04:42:51.140Z,18.23
2023-02-13T04:45:18.264Z,18.17
2023-02-13T04:47:51.394Z,18.67
2023-02-13T04:50:18.271Z,17.87
2023-02-13T04:52:45.115Z,17.60
2023-02-13T04:55:11.851Z,17.23
2023-02-13T04:57:38.531Z,17.60
2023-02-13T05:00:06.637Z,17.10
2023-02-13T05:02:33.373Z,17.80
2023-02-13T05:05:00.121Z,15.83
2023-02-13T05:07:26.816Z,17.80
2023-02-13T05:09:53.467Z,16.53
2023-02-13T05:12:20.116Z,17.60
2023-02-13T05:14:46.962Z,17.20
2023-02-13T05:17:13.726Z,16.83
2023-02-13T05:19:40.648Z,16.50
2023-02-13T05:22:26.807Z,18.43
2023-02-13T05:24:53.525Z,16.57
2023-02-13T05:27:20.226Z,17.07
2023-02-13T05:29:47.165Z,17.63
2023-02-13T05:32:13.912Z,17.77
2023-02-13T05:34:40.692Z,16.73
2023-02-13T05:37:07.416Z,16.80
2023-02-13T05:39:34.173Z,17.43
2023-02-13T05:42:00.870Z,16.80
2023-02-13T05:44:27.673Z,17.27
2023-02-13T05:46:54.331Z,18.17
2023-02-13T05:49:21.155Z,19.13
2023-02-13T05:51:47.979Z,18.03
2023-02-13T05:54:14.785Z,18.17
2023-02-13T05:56:41.716Z,18.10
2023-02-13T05:59:08.581Z,18.67
2023-02-13T06:01:35.365Z,17.70
2023-02-13T06:04:03.872Z,16.80
2023-02-13T06:06:31.052Z,16.50
2023-02-13T06:08:57.780Z,17.47
2023-02-13T06:11:24.512Z,18.07
2023-02-13T06:13:51.178Z,17.30
2023-02-13T06:16:17.976Z,19.17
2023-02-13T06:18:44.706Z,17.80
2023-02-13T06:21:11.393Z,17.97
2023-02-13T06:23:38.251Z,19.10
2023-02-13T06:26:07.432Z,18.90
2023-02-13T06:28:34.719Z,19.50
2023-02-13T06:31:02.126Z,17.90
2023-02-13T06:33:29.202Z,18.60
2023-02-13T06:35:55.862Z,17.90
2023-02-13T06:38:22.694Z,17.40
2023-02-13T06:40:50.059Z,18.47
2023-02-13T06:43:17.938Z,20.97
2023-02-13T06:45:46.911Z,20.47
2023-02-13T06:48:14.467Z,19.27
2023-02-13T06:50:41.360Z,19.80
2023-02-13T06:53:08.316Z,20.40
2023-02-13T06:55:35.991Z,23.23
2023-02-13T06:58:02.750Z,22.00
2023-02-13T07:00:29.547Z,22.23
2023-02-13T07:03:02.674Z,22.97
2023-02-13T07:05:29.760Z,21.93
2023-02-13T07:07:56.586Z,22.03
2023-02-13T07:10:23.556Z,24.27
2023-02-13T07:13:03.636Z,21.67
2023-02-13T07:15:33.211Z,21.73
2023-02-13T07:18:00.520Z,20.23
2023-02-13T07:20:28.200Z,20.90
2023-02-13T07:23:02.471Z,20.73
2023-02-13T07:25:29.734Z,20.17
2023-02-13T07:28:07.347Z,21.17
2023-02-13T07:30:34.985Z,20.40
2023-02-13T07:33:03.452Z,23.27
2023-02-13T07:35:30.420Z,21.73
2023-02-13T07:37:57.163Z,19.43
2023-02-13T07:40:23.958Z,20.80
2023-02-13T07:42:50.659Z,19.80
2023-02-13T07:45:17.490Z,20.50
2023-02-13T07:47:44.309Z,22.87
2023-02-13T07:50:11.746Z,20.40
2023-02-13T07:52:38.524Z,22.37
2023-02-13T07:55:06.280Z,19.73
2023-02-13T07:57:33.558Z,22.47
2023-02-13T08:00:00.484Z,21.43
2023-02-13T08:02:27.237Z,22.87
2023-02-13T08:04:54.009Z,21.67
2023-02-13T08:07:20.723Z,21.17
2023-02-13T08:10:06.338Z,20.33
2023-02-13T08:12:35.825Z,20.13
2023-02-13T08:15:03.049Z,21.83
2023-02-13T08:17:29.812Z,21.87
2023-02-13T08:19:56.589Z,22.77
2023-02-13T08:22:23.506Z,22.60
2023-02-13T08:24:50.227Z,28.43
2023-02-13T08:27:17.068Z,22.53
2023-02-13T08:29:43.937Z,23.27
2023-02-13T08:32:10.837Z,24.10
2023-02-13T08:34:37.649Z,24.17
2023-02-13T08:37:05.196Z,23.47
2023-02-13T08:39:32.009Z,22.30
2023-02-13T08:41:58.735Z,22.50
2023-02-13T08:44:25.510Z,20.60
2023-02-13T08:46:52.423Z,21.83
2023-02-13T08:49:19.369Z,20.20
2023-02-13T08:51:46.141Z,19.87
2023-02-13T08:54:12.880Z,19.13
2023-02-13T08:56:39.632Z,20.00
2023-02-13T08:59:06.354Z,18.40
2023-02-13T09:01:33.151Z,19.97
2023-02-13T09:03:59.942Z,19.60
2023-02-13T09:06:28.454Z,19.47
2023-02-13T09:08:55.631Z,18.03
2023-02-13T09:11:23.569Z,16.70
2023-02-13T09:13:53.973Z,17.37
2023-02-13T09:16:21.217Z,16.37
2023-02-13T09:18:48.916Z,19.03
2023-02-13T09:21:16.476Z,16.40
2023-02-13T09:23:43.291Z,17.00
2023-02-13T09:26:13.416Z,17.07
2023-02-13T09:28:41.126Z,14.73
2023-02-13T09:31:10.111Z,16.20
2023-02-13T09:33:37.216Z,15.97
2023-02-13T09:36:09.524Z,16.13
2023-02-13T09:38:36.333Z,16.77
2023-02-13T09:41:07.852Z,16.70
2023-02-13T09:44:02.576Z,16.87
2023-02-13T09:46:32.024Z,16.47
2023-02-13T09:49:02.747Z,16.00
2023-02-13T09:51:29.690Z,15.53
2023-02-13T09:54:07.717Z,15.90
2023-02-13T09:56:49.512Z,17.00
2023-02-13T09:59:42.706Z,15.67
2023-02-13T10:02:27.815Z,14.73
2023-02-13T10:05:19.497Z,16.00
2023-02-13T10:08:06.661Z,14.37
2023-02-13T10:11:04.939Z,13.83
2023-02-13T10:13:55.711Z,15.17
2023-02-13T10:16:27.284Z,13.70
2023-02-13T10:19:02.377Z,13.43
2023-02-13T10:21:34.269Z,14.40
2023-02-13T10:24:39.567Z,13.93
2023-02-13T10:27:26.126Z,13.47
2023-02-13T10:30:06.930Z,12.93
2023-02-13T10:33:22.005Z,13.73
2023-02-13T10:36:11.482Z,12.13
2023-02-13T10:39:04.611Z,13.73
2023-02-13T10:41:46.097Z,12.43
2023-02-13T10:44:31.590Z,12.50
2023-02-13T10:47:01.283Z,12.43
2023-02-13T10:49:46.818Z,11.43
2023-02-13T10:52:39.467Z,10.60
2023-02-13T10:55:30.493Z,12.50
2023-02-13T10:58:38.423Z,12.50
2023-02-13T11:01:13.807Z,10.73
2023-02-13T11:03:40.670Z,12.77
2023-02-13T11:06:14.123Z,12.30
2023-02-13T11:08:44.197Z,12.07
2023-02-13T11:11:34.359Z,11.53
2023-02-13T11:14:19.306Z,13.83
2023-02-13T11:17:15.590Z,12.60
2023-02-13T11:19:51.758Z,11.63
2023-02-13T11:22:37.020Z,13.57
2023-02-13T11:25:22.285Z,11.60
2023-02-13T11:27:51.405Z,11.50
2023-02-13T11:30:24.068Z,12.20
2023-02-13T11:33:17.344Z,11.57
2023-02-13T11:35:47.893Z,11.80
2023-02-13T11:38:20.108Z,12.60
2023-02-13T11:40:53.513Z,13.00
2023-02-13T11:43:47.392Z,11.93
2023-02-13T11:46:25.665Z,12.00
2023-02-13T11:49:04.682Z,12.70
2023-02-13T11:51:42.873Z,12.20
2023-02-13T11:54:35.577Z,12.17
2023-02-13T11:57:19.138Z,12.70
2023-02-13T11:59:47.761Z,11.60
2023-02-13T12:02:35.589Z,12.60
2023-02-13T12:05:28.412Z,12.90
2023-02-13T12:08:01.372Z,13.20
2023-02-13T12:10:31.575Z,13.50
2023-02-13T12:13:02.206Z,12.80
2023-02-13T12:15:35.298Z,12.60
2023-02-13T12:18:20.656Z,16.77
2023-02-13T12:21:12.526Z,13.07
2023-02-13T12:24:08.529Z,14.27
2023-02-13T12:26:40.995Z,13.90
2023-02-13T12:29:30.202Z,13.93
2023-02-13T12:32:07.500Z,14.23
2023-02-13T12:35:07.159Z,14.43
2023-02-13T12:37:39.692Z,12.70
2023-02-13T12:40:26.596Z,13.07
2023-02-13T12:43:04.254Z,12.40
2023-02-13T12:45:31.033Z,14.00
2023-02-13T12:48:27.840Z,14.67
2023-02-13T12:51:39.123Z,13.03
2023-02-13T12:54:37.530Z,14.17
2023-02-13T12:57:19.642Z,13.83
2023-02-13T13:00:24.058Z,14.67
2023-02-13T13:03:15.302Z,14.90
2023-02-13T13:05:45.242Z,15.90
2023-02-13T13:08:27.939Z,13.60
2023-02-13T13:11:15.970Z,15.00
2023-02-13T13:14:11.374Z,14.37
2023-02-13T13:16:57.723Z,15.97
2023-02-13T13:19:39.397Z,14.30
2023-02-13T13:22:30.362Z,16.67
2023-02-13T13:25:23.452Z,13.40
2023-02-13T13:27:56.766Z,14.03
2023-02-13T13:30:30.203Z,12.43
2023-02-13T13:33:19.991Z,12.40
2023-02-13T13:36:05.558Z,13.00
2023-02-13T13:39:21.702Z,13.03
2023-02-13T13:41:55.233Z,13.33
2023-02-13T13:44:27.858Z,12.77
2023-02-13T13:46:57.593Z,10.27
2023-02-13T13:49:52.737Z,7.50
2023-02-13T13:52:22.460Z,10.77
2023-02-13T13:54:52.560Z,14.47
2023-02-13T13:57:57.507Z,14.90
2023-02-13T14:00:29.850Z,14.07
2023-02-13T14:02:59.301Z,11.40
2023-02-13T14:05:27.683Z,9.90
2023-02-13T14:07:59.337Z,8.17
2023-02-13T14:10:26.027Z,8.70
2023-02-13T14:12:55.730Z,7.93
2023-02-13T14:15:45.563Z,7.47
2023-02-13T14:18:20.224Z,6.93
2023-02-13T14:20:50.468Z,7.40
2023-02-13T14:23:21.562Z,7.13
2023-02-13T14:25:48.623Z,6.63
2023-02-13T14:28:23.141Z,7.47
2023-02-13T14:30:51.537Z,7.70
2023-02-13T14:33:30.286Z,10.93
2023-02-13T14:36:21.598Z,8.63
2023-02-13T14:39:01.194Z,7.97
2023-02-13T14:41:55.428Z,8.20
2023-02-13T14:44:44.985Z,13.10
2023-02-13T14:47:30.257Z,11.60
2023-02-13T14:49:59.563Z,10.60
2023-02-13T14:52:33.198Z,7.67
2023-02-13T14:55:04.439Z,8.73
2023-02-13T14:57:34.558Z,8.40
2023-02-13T15:00:31.669Z,7.33
2023-02-13T15:03:08.041Z,7.80
2023-02-13T15:05:35.904Z,9.80
2023-02-13T15:08:13.393Z,12.43
2023-02-13T15:10:41.918Z,9.40
2023-02-13T15:13:22.688Z,8.40
2023-02-13T15:15:55.787Z,10.93
2023-02-13T15:18:47.936Z,12.10
2023-02-13T15:21:21.587Z,11.53
2023-02-13T15:23:55.350Z,10.57
2023-02-13T15:26:26.333Z,10.97
2023-02-13T15:29:01.584Z,9.63
2023-02-13T15:31:36.722Z,11.90
2023-02-13T15:34:03.585Z,12.43
2023-02-13T15:36:41.399Z,11.97
2023-02-13T15:39:15.631Z,11.77
2023-02-13T15:41:54.730Z,12.30
2023-02-13T15:44:34.133Z,11.20
2023-02-13T15:47:29.921Z,11.37
2023-02-13T15:49:57.263Z,11.00
2023-02-13T15:52:31.815Z,11.40
2023-02-13T15:54:59.229Z,12.80
2023-02-13T15:57:27.581Z,14.13
2023-02-13T16:00:00.371Z,12.53
2023-02-13T16:02:40.091Z,11.40
2023-02-13T16:05:07.820Z,11.40
2023-02-13T16:07:58.674Z,11.97
2023-02-13T16:10:36.477Z,11.80
2023-02-13T16:13:06.506Z,11.50
2023-02-13T16:15:36.844Z,13.00
2023-02-13T16:18:06.241Z,12.40
2023-02-13T16:20:35.007Z,12.67
2023-02-13T16:23:06.556Z,12.00
2023-02-13T16:25:35.525Z,12.63
2023-02-13T16:28:17.963Z,12.80
2023-02-13T16:30:50.899Z,10.90
2023-02-13T16:33:20.608Z,12.97
2023-02-13T16:35:57.039Z,15.13
2023-02-13T16:38:41.544Z,14.00
2023-02-13T16:41:17.508Z,19.60
2023-02-13T16:43:49.073Z,16.43
2023-02-13T16:46:17.710Z,13.23
2023-02-13T16:48:47.961Z,14.67
2023-02-13T16:51:15.864Z,12.77
2023-02-13T16:53:42.629Z,12.63
2023-02-13T16:56:11.351Z,14.00
2023-02-13T16:58:38.137Z,14.00
2023-02-13T17:01:06.003Z,12.90
2023-02-13T17:03:33.041Z,14.73
2023-02-13T17:06:03.565Z,13.20
2023-02-13T17:08:33.376Z,11.70
2023-02-13T17:11:07.984Z,12.67
2023-02-13T17:13:35.116Z,13.43
2023-02-13T17:16:01.934Z,13.50
2023-02-13T17:18:28.758Z,16.47
2023-02-13T17:20:55.540Z,15.43
2023-02-13T17:23:24.584Z,16.80
2023-02-13T17:25:53.746Z,13.73
2023-02-13T17:28:24.231Z,13.27
2023-02-13T17:30:54.114Z,16.43
2023-02-13T17:33:26.731Z,15.40
2023-02-13T17:35:54.189Z,14.83
2023-02-13T17:38:21.391Z,15.17
2023-02-13T17:40:48.403Z,15.97
2023-02-13T17:43:19.040Z,16.10
2023-02-13T17:45:46.482Z,15.40
2023-02-13T17:48:13.412Z,13.70
2023-02-13T17:50:40.299Z,17.77
2023-02-13T17:53:16.378Z,17.27
2023-02-13T17:55:43.128Z,15.20
2023-02-13T17:58:09.888Z,15.57
2023-02-13T18:00:36.722Z,17.93
2023-02-13T18:03:04.599Z,16.80
2023-02-13T18:05:33.108Z,15.73
2023-02-13T18:08:03.632Z,16.37
2023-02-13T18:10:33.587Z,17.20
2023-02-13T18:13:04.378Z,15.47
2023-02-13T18:15:39.193Z,18.30
2023-02-13T18:18:06.224Z,18.50
2023-02-13T18:20:33.156Z,17.43
2023-02-13T18:23:11.486Z,16.70
2023-02-13T18:25:38.251Z,16.53
2023-02-13T18:28:09.713Z,16.60
2023-02-13T18:30:41.724Z,16.70
2023-02-13T18:33:08.584Z,17.80
2023-02-13T18:35:42.165Z,17.10
2023-02-13T18:38:08.923Z,17.00
2023-02-13T18:40:36.232Z,17.87
2023-02-13T18:43:02.910Z,17.47
2023-02-13T18:45:33.066Z,18.27
2023-02-13T18:48:03.329Z,19.23
2023-02-13T18:50:30.088Z,18.47
2023-02-13T18:52:56.886Z,18.20
2023-02-13T18:55:23.663Z,16.97
2023-02-13T18:57:53.680Z,17.97
2023-02-13T19:00:22.252Z,15.70
2023-02-13T19:02:49.053Z,16.77
2023-02-13T19:05:15.868Z,18.70
2023-02-13T19:07:42.632Z,18.23
2023-02-13T19:10:10.003Z,17.77
2023-02-13T19:12:36.952Z,19.10
2023-02-13T19:15:04.444Z,17.63
2023-02-13T19:17:31.292Z,19.10
2023-02-13T19:20:07.245Z,19.20
2023-02-13T19:22:34.112Z,18.17
2023-02-13T19:25:01.753Z,18.57
2023-02-13T19:27:28.789Z,19.67
2023-02-13T19:29:55.553Z,19.00
2023-02-13T19:32:22.325Z,19.50
2023-02-13T19:34:49.149Z,19.17
2023-02-13T19:37:15.876Z,18.60
2023-02-13T19:39:42.686Z,19.80
2023-02-13T19:42:09.586Z,18.63
2023-02-13T19:44:36.271Z,20.03
2023-02-13T19:47:03.026Z,19.20
2023-02-13T19:49:29.834Z,18.63
2023-02-13T19:51:56.579Z,18.23
2023-02-13T19:54:23.505Z,19.60
2023-02-13T19:56:50.564Z,20.63
2023-02-13T19:59:17.408Z,19.70
2023-02-13T20:01:45.668Z,20.40
2023-02-13T20:04:12.471Z,23.70
2023-02-13T20:06:39.701Z,22.20
2023-02-13T20:09:12.101Z,24.00
2023-02-13T20:11:40.592Z,24.03
2023-02-13T20:14:14.326Z,20.33
2023-02-13T20:16:43.023Z,21.90
2023-02-13T20:19:11.752Z,22.83
2023-02-13T20:21:38.977Z,20.17
2023-02-13T20:24:06.104Z,23.20
2023-02-13T20:26:33.363Z,22.30
2023-02-13T20:29:00.189Z,21.20
2023-02-13T20:31:29.367Z,28.47
2023-02-13T20:33:57.915Z,22.10
2023-02-13T20:36:27.798Z,27.43
2023-02-13T20:38:57.835Z,21.87
2023-02-13T20:41:27.373Z,23.00
2023-02-13T20:44:02.994Z,22.23
2023-02-13T20:46:35.138Z,20.93
2023-02-13T20:49:01.934Z,20.10
2023-02-13T20:51:29.590Z,21.90
2023-02-13T20:53:56.405Z,20.40
2023-02-13T20:56:25.742Z,20.10
2023-02-13T20:58:55.563Z,20.97
2023-02-13T21:01:27.931Z,19.60
2023-02-13T21:03:55.935Z,19.77
2023-02-13T21:06:31.902Z,20.13
2023-02-13T21:08:58.964Z,20.20
2023-02-13T21:11:28.244Z,19.27
2023-02-13T21:13:56.516Z,21.27
2023-02-13T21:16:26.510Z,20.47
2023-02-13T21:18:56.427Z,21.63
2023-02-13T21:21:25.086Z,20.97
2023-02-13T21:23:56.901Z,21.20
2023-02-13T21:26:24.607Z,20.07
2023-02-13T21:28:52.109Z,21.00
2023-02-13T21:31:29.299Z,20.33
2023-02-13T21:34:05.247Z,21.80
2023-02-13T21:36:33.880Z,21.50
2023-02-13T21:39:00.927Z,21.63
2023-02-13T21:41:27.850Z,22.00
2023-02-13T21:43:55.110Z,22.80
2023-02-13T21:46:25.149Z,22.23
2023-02-13T21:49:00.563Z,21.53
2023-02-13T21:51:29.449Z,23.87
2023-02-13T21:53:56.640Z,23.67
2023-02-13T21:56:26.323Z,21.90
2023-02-13T21:58:53.225Z,23.17
2023-02-13T22:01:26.405Z,23.73
2023-02-13T22:03:57.832Z,21.73
2023-02-13T22:06:26.098Z,23.50
2023-02-13T22:08:58.056Z,22.07
2023-02-13T22:11:25.300Z,24.57
2023-02-13T22:13:55.889Z,21.93
2023-02-13T22:16:23.463Z,21.63
2023-02-13T22:18:50.721Z,23.17
2023-02-13T22:21:23.001Z,23.93
2023-02-13T22:23:50.361Z,22.17
2023-02-13T22:26:19.806Z,22.13
2023-02-13T22:28:47.062Z,23.87
2023-02-13T22:31:15.168Z,22.43
2023-02-13T22:33:42.939Z,24.30
2023-02-13T22:36:12.591Z,23.40
2023-02-13T22:38:40.788Z,22.77
2023-02-13T22:41:14.288Z,21.00
2023-02-13T22:43:42.107Z,22.27
2023-02-13T22:46:16.158Z,23.67
2023-02-13T22:48:46.850Z,21.30
2023-02-13T22:51:19.723Z,25.10
2023-02-13T22:53:48.373Z,22.83
2023-02-13T22:56:15.227Z,22.27
2023-02-13T22:58:41.942Z,22.60
2023-02-13T23:01:14.545Z,22.47
2023-02-13T23:03:42.016Z,22.37
2023-02-13T23:06:10.522Z,22.13
2023-02-13T23:08:38.441Z,22.37
2023-02-13T23:11:31.807Z,24.43
2023-02-13T23:13:59.038Z,22.70
2023-02-13T23:16:26.952Z,22.53
2023-02-13T23:18:55.703Z,22.37
2023-02-13T23:21:22.728Z,23.37
2023-02-13T23:23:49.708Z,23.83
2023-02-13T23:26:16.497Z,22.87
2023-02-13T23:28:43.329Z,23.60
2023-02-13T23:31:10.460Z,26.77
2023-02-13T23:33:37.413Z,25.27
2023-02-13T23:36:04.539Z,25.30
2023-02-13T23:38:31.340Z,24.80
2023-02-13T23:41:13.621Z,24.07
2023-02-13T23:43:40.397Z,25.03
2023-02-13T23:46:07.683Z,22.73
2023-02-13T23:48:34.873Z,22.73
2023-02-13T23:51:01.976Z,23.33
2023-02-13T23:53:29.100Z,24.17
2023-02-13T23:55:58.946Z,23.27
2023-02-13T23:58:25.701Z,22.80
